Time;durP1;ratioP1;P1;durP2;ratioP2;P2;SDS_P1;SDS_P2;PMS_P1;PMS_P2;Temp;Humidity;BMP_temperature;BMP_pressure;BME280_temperature;BME280_humidity;BME280_pressure;Samples;Min_cycle;Max_cycle;Signal;HPM_P1;HPM_P2
2022/03/02 00:00:21;;;;;;;9.00;8.20;;;2.70;97.10;;;;;;5045538;28;20223;-73
2022/03/02 00:02:50;;;;;;;9.27;8.38;;;2.70;97.20;;;;;;5044616;28;20249;-74
2022/03/02 00:05:17;;;;;;;9.60;8.65;;;2.70;97.20;;;;;;5047131;28;20214;-76
2022/03/02 00:07:44;;;;;;;9.63;8.73;;;2.70;97.10;;;;;;5047386;28;20299;-72
2022/03/02 00:10:11;;;;;;;10.40;8.57;;;2.70;97.00;;;;;;5059322;28;20437;-73
2022/03/02 00:12:39;;;;;;;9.30;8.40;;;2.70;97.10;;;;;;5065045;28;20198;-72
2022/03/02 00:15:06;;;;;;;9.48;8.57;;;2.70;97.20;;;;;;5067786;28;20222;-72
2022/03/02 00:17:33;;;;;;;9.45;8.50;;;2.70;97.30;;;;;;5066179;28;20202;-74
2022/03/02 00:20:02;;;;;;;8.88;8.00;;;2.70;97.30;;;;;;5063298;28;20264;-73
2022/03/02 00:22:29;;;;;;;9.88;8.88;;;2.70;97.20;;;;;;5066846;28;20246;-72
2022/03/02 00:24:56;;;;;;;9.38;8.57;;;2.70;97.10;;;;;;5064371;28;20234;-73
2022/03/02 00:27:24;;;;;;;9.63;8.63;;;2.60;97.10;;;;;;5067754;28;20351;-72
2022/03/02 00:29:51;;;;;;;9.85;8.95;;;2.60;97.30;;;;;;5061881;28;20315;-73
2022/03/02 00:32:19;;;;;;;9.23;8.32;;;2.60;97.20;;;;;;5066235;28;20206;-72
2022/03/02 00:34:46;;;;;;;9.70;8.65;;;2.60;97.30;;;;;;5063966;28;20730;-72
2022/03/02 00:37:15;;;;;;;8.93;7.68;;;2.60;97.40;;;;;;5072398;28;20190;-74
2022/03/02 00:39:43;;;;;;;9.32;8.40;;;2.50;97.40;;;;;;5071644;28;20308;-73
2022/03/02 00:42:10;;;;;;;8.82;8.05;;;2.50;97.60;;;;;;5066332;28;20248;-73
2022/03/02 00:44:38;;;;;;;9.38;8.48;;;2.50;97.60;;;;;;5065936;28;20218;-73
2022/03/02 00:47:06;;;;;;;7.93;7.15;;;2.50;97.50;;;;;;5065490;28;20217;-74
2022/03/02 00:49:34;;;;;;;8.63;7.57;;;2.60;97.60;;;;;;5062684;28;20222;-73
2022/03/02 00:52:02;;;;;;;8.88;7.30;;;2.50;97.70;;;;;;5064889;28;20672;-77
2022/03/02 00:54:32;;;;;;;9.13;8.13;;;2.50;97.90;;;;;;5064328;28;20246;-73
2022/03/02 00:56:59;;;;;;;9.32;7.03;;;2.50;97.80;;;;;;5065908;28;20202;-72
2022/03/02 00:59:26;;;;;;;8.82;8.00;;;2.50;97.90;;;;;;5062906;28;20252;-73
2022/03/02 01:01:53;;;;;;;9.52;8.02;;;2.50;98.00;;;;;;5064177;28;20199;-72
2022/03/02 01:04:20;;;;;;;8.52;7.75;;;2.50;98.00;;;;;;5065129;28;20222;-77
2022/03/02 01:06:47;;;;;;;8.45;7.65;;;2.40;98.10;;;;;;5062316;28;20217;-74
2022/03/02 01:09:15;;;;;;;9.00;8.10;;;2.40;98.20;;;;;;5064988;28;20229;-74
2022/03/02 01:11:43;;;;;;;8.98;8.18;;;2.40;98.40;;;;;;5058856;28;20218;-74
2022/03/02 01:14:11;;;;;;;9.40;8.50;;;2.40;98.50;;;;;;5063350;28;20222;-74
2022/03/02 01:16:38;;;;;;;9.07;8.27;;;2.40;98.60;;;;;;5063414;28;20214;-74
2022/03/02 01:19:05;;;;;;;8.75;7.35;;;2.40;98.60;;;;;;5064678;28;20268;-75
2022/03/02 01:21:32;;;;;;;8.93;8.00;;;2.40;98.70;;;;;;5062659;28;20226;-73
2022/03/02 01:24:00;;;;;;;8.20;7.22;;;2.40;98.70;;;;;;5064341;28;20412;-74
2022/03/02 01:26:29;;;;;;;8.05;7.22;;;2.40;98.70;;;;;;5063852;28;20313;-74
2022/03/02 01:28:57;;;;;;;8.50;7.80;;;2.40;98.70;;;;;;5061935;28;20203;-76
2022/03/02 01:31:26;;;;;;;9.02;8.23;;;2.30;98.70;;;;;;5062542;28;20267;-75
2022/03/02 01:33:53;;;;;;;9.70;8.68;;;2.30;98.50;;;;;;5062325;28;20191;-74
2022/03/02 01:36:21;;;;;;;8.30;7.10;;;2.30;98.60;;;;;;5065347;28;20910;-74
2022/03/02 01:38:48;;;;;;;8.57;7.80;;;2.20;98.50;;;;;;5062470;28;20718;-74
2022/03/02 01:41:16;;;;;;;8.90;7.90;;;2.20;98.60;;;;;;5061325;28;20226;-75
2022/03/02 01:43:43;;;;;;;8.50;7.60;;;2.20;98.60;;;;;;5063355;28;20199;-73
2022/03/02 01:46:12;;;;;;;10.13;8.27;;;2.10;98.70;;;;;;5063679;28;20863;-73
2022/03/02 01:48:40;;;;;;;9.00;8.10;;;2.10;98.70;;;;;;5064471;28;20198;-74
2022/03/02 01:51:07;;;;;;;8.88;7.97;;;2.10;98.80;;;;;;5060510;28;20226;-73
2022/03/02 01:53:34;;;;;;;10.30;9.02;;;2.00;98.90;;;;;;5064670;28;20221;-75
2022/03/02 01:56:02;;;;;;;8.60;7.70;;;2.00;98.90;;;;;;5062567;28;20223;-75
2022/03/02 01:58:30;;;;;;;8.48;7.70;;;2.00;99.30;;;;;;5063417;28;20205;-74
2022/03/02 02:00:59;;;;;;;8.38;7.50;;;2.00;98.90;;;;;;5058436;28;20664;-73
2022/03/02 02:03:28;;;;;;;8.13;7.32;;;2.00;99.10;;;;;;5062566;28;20641;-74
2022/03/02 02:05:56;;;;;;;8.48;7.57;;;2.00;99.00;;;;;;5060410;28;20213;-74
2022/03/02 02:08:24;;;;;;;10.95;7.55;;;2.00;99.10;;;;;;5061196;28;20194;-73
2022/03/02 02:10:51;;;;;;;8.65;7.75;;;2.00;99.00;;;;;;5060627;28;20679;-74
2022/03/02 02:13:18;;;;;;;7.65;6.95;;;2.00;99.10;;;;;;5063007;28;20213;-75
2022/03/02 02:15:45;;;;;;;8.90;8.05;;;2.00;99.00;;;;;;5062646;28;20291;-74
2022/03/02 02:18:13;;;;;;;8.88;7.97;;;2.00;98.90;;;;;;5064664;28;20190;-76
2022/03/02 02:20:42;;;;;;;8.65;7.82;;;1.90;98.90;;;;;;5043039;28;20592;-73
2022/03/02 02:23:09;;;;;;;8.43;7.03;;;1.90;99.00;;;;;;5042310;28;20262;-73
2022/03/02 02:25:36;;;;;;;8.60;7.80;;;1.90;99.00;;;;;;5043401;28;20360;-73
2022/03/02 02:28:03;;;;;;;8.52;7.55;;;1.80;98.90;;;;;;5042973;28;20214;-74
2022/03/02 02:30:31;;;;;;;7.95;7.15;;;1.80;99.00;;;;;;5051940;28;20222;-73
2022/03/02 02:32:58;;;;;;;8.15;7.10;;;1.70;99.00;;;;;;5063444;28;20656;-73
2022/03/02 02:35:26;;;;;;;8.10;7.35;;;1.70;99.00;;;;;;5062797;28;20716;-73
2022/03/02 02:37:55;;;;;;;8.52;7.72;;;1.70;99.10;;;;;;5060556;28;20191;-73
2022/03/02 02:40:23;;;;;;;8.30;7.50;;;1.60;99.10;;;;;;5060009;28;20688;-73
2022/03/02 02:42:51;;;;;;;8.70;7.93;;;1.70;99.30;;;;;;5059954;28;20704;-73
2022/03/02 02:45:22;;;;;;;8.82;8.02;;;1.60;99.40;;;;;;5063508;28;20221;-73
2022/03/02 02:47:50;;;;;;;8.25;7.53;;;1.60;99.40;;;;;;5062750;28;20222;-74
2022/03/02 02:50:20;;;;;;;8.73;7.82;;;1.60;99.40;;;;;;5062658;28;20308;-73
2022/03/02 02:52:47;;;;;;;8.65;7.85;;;1.60;99.50;;;;;;5062940;28;20198;-74
2022/03/02 02:55:17;;;;;;;8.88;8.07;;;1.60;99.40;;;;;;5062923;28;20222;-74
2022/03/02 02:57:45;;;;;;;8.57;7.78;;;1.60;99.40;;;;;;5064569;28;20189;-74
2022/03/02 03:00:14;;;;;;;8.75;7.95;;;1.60;99.30;;;;;;5059476;28;20595;-73
2022/03/02 03:02:42;;;;;;;8.52;7.65;;;1.60;99.40;;;;;;5060974;28;20206;-74
2022/03/02 03:05:11;;;;;;;7.93;7.22;;;1.50;99.50;;;;;;5067196;28;20221;-74
2022/03/02 03:07:39;;;;;;;9.63;7.50;;;1.50;99.50;;;;;;5065286;28;20309;-75
2022/03/02 03:10:06;;;;;;;7.93;7.22;;;1.50;99.20;;;;;;5057577;28;20604;-74
2022/03/02 03:12:35;;;;;;;7.30;6.53;;;1.50;99.30;;;;;;5063978;28;20194;-74
2022/03/02 03:15:05;;;;;;;8.50;7.60;;;1.50;99.40;;;;;;5059326;28;20741;-74
2022/03/02 03:17:33;;;;;;;7.65;6.90;;;1.50;99.40;;;;;;5073978;28;20201;-75
2022/03/02 03:20:00;;;;;;;7.25;6.55;;;1.50;99.50;;;;;;5073307;28;20637;-73
2022/03/02 03:22:27;;;;;;;8.43;7.63;;;1.50;99.60;;;;;;5062119;28;20734;-73
2022/03/02 03:24:54;;;;;;;8.07;7.32;;;1.40;99.70;;;;;;5060691;28;20280;-73
2022/03/02 03:27:21;;;;;;;9.00;7.25;;;1.40;99.60;;;;;;5060507;28;20219;-74
2022/03/02 03:29:49;;;;;;;8.85;7.80;;;1.40;99.80;;;;;;5058053;28;20226;-72
2022/03/02 03:32:16;;;;;;;8.02;7.30;;;1.40;99.80;;;;;;5060454;28;20190;-72
2022/03/02 03:34:44;;;;;;;8.13;7.43;;;1.40;99.90;;;;;;5058520;28;20214;-73
2022/03/02 03:37:11;;;;;;;7.10;6.50;;;1.40;99.90;;;;;;5062811;28;20272;-72
2022/03/02 03:39:38;;;;;;;8.13;7.30;;;1.40;99.90;;;;;;5061195;28;20198;-73
2022/03/02 03:42:05;;;;;;;10.82;8.20;;;1.40;99.90;;;;;;5065881;28;20680;-73
2022/03/02 03:44:32;;;;;;;8.43;7.72;;;1.40;99.80;;;;;;5062848;28;20201;-71
2022/03/02 03:47:01;;;;;;;8.00;7.30;;;1.30;99.80;;;;;;5059142;28;20856;-72
2022/03/02 03:49:28;;;;;;;8.18;7.47;;;1.30;99.80;;;;;;5062667;28;20210;-74
2022/03/02 03:51:55;;;;;;;8.75;7.45;;;1.20;99.90;;;;;;5061760;28;20292;-73
2022/03/02 03:54:22;;;;;;;8.23;7.43;;;1.20;99.90;;;;;;5062480;28;20371;-72
2022/03/02 03:56:49;;;;;;;8.35;7.55;;;1.20;99.90;;;;;;5043828;28;20529;-73
2022/03/02 03:59:16;;;;;;;9.50;7.80;;;1.20;99.90;;;;;;5047335;28;20202;-73
2022/03/02 04:01:43;;;;;;;9.10;8.18;;;1.10;99.90;;;;;;5041664;28;20564;-73
2022/03/02 04:04:12;;;;;;;9.00;8.00;;;1.20;99.90;;;;;;5041823;28;20713;-72
2022/03/02 04:06:39;;;;;;;11.18;7.60;;;1.20;99.90;;;;;;5041772;28;20226;-74
2022/03/02 04:09:06;;;;;;;8.40;7.60;;;1.20;99.90;;;;;;5040635;28;20586;-72
2022/03/02 04:11:33;;;;;;;8.15;7.35;;;1.30;99.90;;;;;;5042007;28;20705;-71
2022/03/02 04:14:00;;;;;;;8.80;8.00;;;1.20;99.90;;;;;;5040348;28;20256;-73
2022/03/02 04:16:27;;;;;;;9.20;7.88;;;1.30;99.90;;;;;;5039959;28;20219;-73
2022/03/02 04:18:54;;;;;;;7.45;6.75;;;1.30;99.90;;;;;;5042332;28;20272;-72
2022/03/02 04:21:22;;;;;;;7.78;6.78;;;1.30;99.90;;;;;;5042100;28;20272;-73
2022/03/02 04:23:50;;;;;;;8.75;7.85;;;1.30;99.90;;;;;;5041699;28;20505;-74
2022/03/02 04:26:17;;;;;;;8.63;7.72;;;1.30;99.90;;;;;;5041504;28;20577;-72
2022/03/02 04:28:44;;;;;;;7.85;6.90;;;1.30;99.90;;;;;;5043836;28;20226;-72
2022/03/02 04:31:11;;;;;;;8.57;7.40;;;1.30;99.90;;;;;;5040709;28;20277;-72
2022/03/02 04:33:38;;;;;;;9.05;7.80;;;1.20;99.80;;;;;;5040133;28;20652;-72
2022/03/02 04:36:06;;;;;;;9.88;8.50;;;1.20;99.90;;;;;;5044490;28;21505;-73
2022/03/02 04:38:35;;;;;;;8.60;7.80;;;1.10;99.90;;;;;;5047338;28;20210;-72
2022/03/02 04:41:02;;;;;;;8.43;7.57;;;1.00;99.90;;;;;;5041043;28;20245;-72
2022/03/02 04:43:29;;;;;;;9.70;8.02;;;0.90;99.90;;;;;;5040607;28;20203;-72
2022/03/02 04:45:57;;;;;;;8.32;7.53;;;0.90;99.90;;;;;;5042667;28;20233;-72
2022/03/02 04:48:24;;;;;;;8.45;7.65;;;0.80;99.90;;;;;;5042279;28;20713;-72
2022/03/02 04:50:52;;;;;;;8.48;7.38;;;0.80;99.90;;;;;;5048423;28;20226;-72
2022/03/02 04:53:23;;;;;;;7.70;7.00;;;0.90;99.90;;;;;;5048165;28;20192;-71
2022/03/02 04:55:52;;;;;;;7.85;7.15;;;0.90;99.90;;;;;;5045049;28;20705;-72
2022/03/02 04:58:20;;;;;;;7.90;6.88;;;0.90;99.90;;;;;;5049044;28;20370;-74
2022/03/02 05:00:47;;;;;;;8.65;7.85;;;0.80;99.90;;;;;;5052208;28;20308;-73
2022/03/02 05:03:15;;;;;;;8.20;7.40;;;0.80;99.90;;;;;;5064113;28;20639;-72
2022/03/02 05:05:42;;;;;;;7.35;6.65;;;0.80;99.90;;;;;;5062352;28;20240;-71
2022/03/02 05:08:10;;;;;;;8.88;7.93;;;0.80;99.90;;;;;;5062786;28;20218;-72
2022/03/02 05:10:37;;;;;;;7.82;7.10;;;0.70;99.90;;;;;;5063043;28;20311;-72
2022/03/02 05:13:06;;;;;;;8.57;7.78;;;0.70;99.90;;;;;;5061992;28;20649;-72
2022/03/02 05:15:33;;;;;;;7.47;6.78;;;0.70;99.90;;;;;;5062445;28;20218;-72
2022/03/02 05:18:00;;;;;;;7.85;7.13;;;0.70;99.90;;;;;;5064482;28;20195;-72
2022/03/02 05:20:27;;;;;;;7.97;7.22;;;0.70;99.90;;;;;;5082094;22;20225;-76
2022/03/02 05:22:55;;;;;;;8.32;7.53;;;0.70;99.90;;;;;;5043835;28;20214;-79
2022/03/02 05:25:24;;;;;;;7.40;6.60;;;0.70;99.90;;;;;;5047450;28;20280;-80
2022/03/02 05:27:51;;;;;;;7.43;6.82;;;0.70;99.90;;;;;;5047507;28;20223;-80
2022/03/02 05:30:20;;;;;;;6.72;6.13;;;0.70;99.90;;;;;;5046832;28;20218;-78
2022/03/02 05:32:48;;;;;;;7.80;7.15;;;0.70;99.90;;;;;;5045063;28;20210;-79
2022/03/02 05:35:15;;;;;;;9.15;7.20;;;0.70;99.90;;;;;;5043268;28;20226;-77
2022/03/02 05:37:43;;;;;;;7.80;6.70;;;0.70;99.90;;;;;;5047563;28;20210;-80
2022/03/02 05:40:12;;;;;;;7.85;7.15;;;0.70;99.90;;;;;;5043491;28;20729;-77
2022/03/02 05:42:40;;;;;;;7.10;6.50;;;0.70;99.90;;;;;;5046365;28;20219;-77
2022/03/02 05:45:09;;;;;;;8.20;7.50;;;0.70;99.90;;;;;;5045056;28;20190;-79
2022/03/02 05:47:37;;;;;;;7.20;6.50;;;0.70;99.90;;;;;;5047732;28;20215;-81
2022/03/02 05:50:07;;;;;;;7.05;6.40;;;0.70;99.90;;;;;;5046242;28;20190;-80
2022/03/02 05:52:34;;;;;;;8.07;7.38;;;0.70;99.90;;;;;;5051231;28;20222;-79
2022/03/02 05:55:01;;;;;;;7.72;7.03;;;0.70;99.90;;;;;;5045379;28;20206;-78
2022/03/02 05:57:28;;;;;;;8.35;7.65;;;0.70;99.90;;;;;;5047682;28;20691;-79
2022/03/02 05:59:55;;;;;;;9.90;9.00;;;0.60;99.90;;;;;;5044980;28;20194;-80
2022/03/02 06:02:22;;;;;;;10.23;9.18;;;0.60;99.90;;;;;;5042208;28;20222;-77
2022/03/02 06:04:50;;;;;;;9.82;8.82;;;0.60;99.90;;;;;;5049565;28;20973;-79
2022/03/02 06:07:18;;;;;;;14.20;12.80;;;0.70;99.90;;;;;;5045581;28;20225;-77
2022/03/02 06:09:45;;;;;;;14.05;12.57;;;0.70;99.90;;;;;;5048768;28;20962;-77
2022/03/02 06:12:14;;;;;;;11.77;10.73;;;0.70;99.90;;;;;;5045807;28;20226;-78
2022/03/02 06:14:42;;;;;;;10.48;9.52;;;0.70;99.90;;;;;;5040008;28;20248;-77
2022/03/02 06:17:10;;;;;;;10.40;9.40;;;0.80;99.80;;;;;;5044910;28;20218;-77
2022/03/02 06:19:38;;;;;;;10.00;9.13;;;0.80;99.70;;;;;;5044877;28;20268;-77
2022/03/02 06:22:07;;;;;;;10.10;8.95;;;0.90;99.70;;;;;;5044591;28;20223;-76
2022/03/02 06:24:35;;;;;;;8.63;7.82;;;0.90;99.90;;;;;;5043730;28;20294;-78
2022/03/02 06:27:02;;;;;;;9.40;8.50;;;0.90;99.90;;;;;;5041334;28;20222;-77
2022/03/02 06:29:29;;;;;;;8.35;7.50;;;0.90;99.90;;;;;;5041742;28;20222;-77
2022/03/02 06:31:57;;;;;;;10.15;9.20;;;0.90;99.90;;;;;;5042998;28;20281;-77
2022/03/02 06:34:24;;;;;;;9.82;7.63;;;0.90;99.90;;;;;;5047796;28;20646;-78
2022/03/02 06:36:51;;;;;;;8.27;7.25;;;0.90;99.90;;;;;;5043389;28;20227;-78
2022/03/02 06:39:22;;;;;;;8.45;7.75;;;1.10;99.90;;;;;;5047780;28;20249;-78
2022/03/02 06:42:03;;;;;;;8.05;7.35;;;1.20;99.90;;;;;;5043676;28;20297;-77
2022/03/02 06:44:34;;;;;;;8.43;7.63;;;1.30;99.90;;;;;;5044892;28;20199;-77
2022/03/02 06:47:04;;;;;;;8.35;7.65;;;1.30;99.80;;;;;;5045769;28;20226;-78
2022/03/02 06:49:37;;;;;;;8.25;7.35;;;1.30;99.60;;;;;;5045561;28;20214;-77
2022/03/02 06:52:06;;;;;;;7.85;7.15;;;1.30;99.50;;;;;;5042732;28;20214;-79
2022/03/02 06:54:34;;;;;;;9.23;8.32;;;1.20;99.90;;;;;;5043900;28;20286;-78
2022/03/02 06:57:04;;;;;;;9.10;8.25;;;1.20;99.90;;;;;;5046288;28;20631;-78
2022/03/02 06:59:40;;;;;;;8.45;7.65;;;1.20;99.90;;;;;;5043577;28;20245;-78
2022/03/02 07:02:08;;;;;;;9.07;7.80;;;1.20;99.90;;;;;;5042671;28;20675;-78
2022/03/02 07:04:40;;;;;;;8.57;7.88;;;1.20;99.70;;;;;;5042653;28;20199;-77
2022/03/02 07:07:08;;;;;;;7.90;7.30;;;1.30;99.00;;;;;;5040012;28;20210;-76
2022/03/02 07:09:37;;;;;;;7.97;7.30;;;1.30;98.60;;;;;;5040919;28;20223;-80
2022/03/02 07:12:06;;;;;;;8.70;7.95;;;1.50;98.60;;;;;;5040948;28;20624;-79
2022/03/02 07:14:35;;;;;;;8.18;7.47;;;2.10;98.70;;;;;;5043431;28;20289;-78
2022/03/02 07:17:04;;;;;;;8.52;7.72;;;2.90;97.80;;;;;;5042644;28;20218;-78
2022/03/02 07:19:31;;;;;;;8.95;8.15;;;3.70;97.40;;;;;;5041492;28;20199;-76
2022/03/02 07:22:04;;;;;;;9.00;7.13;;;4.50;96.50;;;;;;5041465;28;20233;-80
2022/03/02 07:24:41;;;;;;;8.70;7.80;;;5.10;95.70;;;;;;5040697;28;20315;-78
2022/03/02 07:27:08;;;;;;;9.80;8.80;;;5.60;94.40;;;;;;5038979;28;20222;-77
2022/03/02 07:29:37;;;;;;;8.50;7.70;;;5.90;94.20;;;;;;5041368;28;20215;-78
2022/03/02 07:32:05;;;;;;;9.30;8.18;;;6.20;93.60;;;;;;5041484;28;20250;-76
2022/03/02 07:34:33;;;;;;;10.48;8.00;;;6.40;93.90;;;;;;5040584;28;20194;-76
2022/03/02 07:37:01;;;;;;;9.30;7.38;;;6.60;93.00;;;;;;5040236;28;20249;-78
2022/03/02 07:39:28;;;;;;;9.10;8.13;;;6.70;92.60;;;;;;5039868;28;20912;-79
2022/03/02 07:41:57;;;;;;;7.25;6.47;;;6.90;92.50;;;;;;5040484;28;20249;-79
2022/03/02 07:44:24;;;;;;;8.70;7.85;;;7.00;92.00;;;;;;5041589;28;20253;-79
2022/03/02 07:46:52;;;;;;;9.50;7.28;;;7.40;92.50;;;;;;5042463;28;20222;-77
2022/03/02 07:49:20;;;;;;;7.70;6.50;;;7.70;91.80;;;;;;5040909;28;20219;-79
2022/03/02 07:51:48;;;;;;;7.45;6.63;;;7.90;91.70;;;;;;5036284;28;20280;-78
2022/03/02 07:54:16;;;;;;;10.45;7.22;;;8.10;91.20;;;;;;5040721;28;20203;-77
2022/03/02 07:56:46;;;;;;;8.27;7.30;;;8.50;90.70;;;;;;5041140;28;20310;-77
2022/03/02 07:59:17;;;;;;;8.00;7.20;;;8.80;90.20;;;;;;5040747;28;20665;-78
2022/03/02 08:01:45;;;;;;;9.80;7.28;;;9.00;90.00;;;;;;5040147;28;20230;-77
2022/03/02 08:04:12;;;;;;;8.38;7.00;;;8.90;89.50;;;;;;5040856;28;20191;-79
2022/03/02 08:06:41;;;;;;;7.68;6.85;;;9.00;89.30;;;;;;5043314;28;20218;-78
2022/03/02 08:09:11;;;;;;;8.65;7.68;;;9.20;89.00;;;;;;5041367;28;20626;-78
2022/03/02 08:11:39;;;;;;;7.63;6.90;;;9.10;87.90;;;;;;5042535;28;20317;-78
2022/03/02 08:14:06;;;;;;;7.65;6.32;;;9.10;88.90;;;;;;5043318;28;20222;-77
2022/03/02 08:16:36;;;;;;;8.65;7.13;;;9.00;88.30;;;;;;5039256;28;20219;-77
2022/03/02 08:19:04;;;;;;;7.57;6.78;;;9.10;88.10;;;;;;5040979;28;20202;-78
2022/03/02 08:21:35;;;;;;;7.45;6.75;;;9.30;88.60;;;;;;5040371;28;20276;-76
2022/03/02 08:24:05;;;;;;;7.00;6.30;;;9.50;89.00;;;;;;5042186;28;21109;-76
2022/03/02 08:26:33;;;;;;;9.85;7.50;;;9.90;88.20;;;;;;5042310;28;20222;-78
2022/03/02 08:29:03;;;;;;;9.80;7.15;;;10.10;87.30;;;;;;5046143;28;20215;-77
2022/03/02 08:31:31;;;;;;;7.63;6.93;;;10.30;86.70;;;;;;5043258;28;20226;-77
2022/03/02 08:34:02;;;;;;;11.00;8.27;;;10.00;86.50;;;;;;5045464;28;20207;-77
2022/03/02 08:36:33;;;;;;;7.78;6.90;;;9.50;86.90;;;;;;5043301;28;20226;-79
2022/03/02 08:39:01;;;;;;;8.38;7.18;;;9.60;88.20;;;;;;5044778;28;20202;-77
2022/03/02 08:41:28;;;;;;;9.10;7.20;;;9.60;87.50;;;;;;5045229;28;20227;-75
2022/03/02 08:43:56;;;;;;;8.40;7.50;;;9.70;87.10;;;;;;5045285;28;20458;-80
2022/03/02 08:46:24;;;;;;;8.88;7.00;;;9.80;86.70;;;;;;5045850;28;20273;-77
2022/03/02 08:48:51;;;;;;;8.32;7.53;;;10.30;86.60;;;;;;5039815;28;20381;-76
2022/03/02 08:51:21;;;;;;;9.50;7.35;;;10.80;85.70;;;;;;5039304;28;20222;-78
2022/03/02 08:53:50;;;;;;;8.75;6.70;;;11.10;83.30;;;;;;5045699;28;20203;-77
2022/03/02 08:56:17;;;;;;;8.20;6.85;;;11.00;82.20;;;;;;5043958;28;20238;-77
2022/03/02 08:58:44;;;;;;;10.68;7.57;;;11.00;83.10;;;;;;5044647;28;20191;-77
2022/03/02 09:01:13;;;;;;;8.07;6.93;;;10.90;82.20;;;;;;5039745;28;20234;-75
2022/03/02 09:03:46;;;;;;;7.90;6.85;;;11.00;82.80;;;;;;5046051;28;20210;-77
2022/03/02 09:06:13;;;;;;;9.65;6.90;;;11.20;81.50;;;;;;5042932;28;20708;-76
2022/03/02 09:08:42;;;;;;;7.53;6.53;;;11.40;81.20;;;;;;5047208;28;20523;-77
2022/03/02 09:11:10;;;;;;;7.75;6.85;;;11.50;81.00;;;;;;5046457;28;20725;-79
2022/03/02 09:13:38;;;;;;;7.72;6.85;;;11.80;80.30;;;;;;5047228;28;20199;-77
2022/03/02 09:16:05;;;;;;;8.60;6.53;;;11.90;78.70;;;;;;5048441;28;20344;-79
2022/03/02 09:18:33;;;;;;;7.85;6.30;;;12.20;78.70;;;;;;5049087;28;20202;-77
2022/03/02 09:21:03;;;;;;;6.75;6.07;;;12.40;78.00;;;;;;5048004;28;20280;-78
2022/03/02 09:23:32;;;;;;;6.68;5.97;;;12.30;73.20;;;;;;5051061;28;20598;-76
2022/03/02 09:26:05;;;;;;;6.65;5.95;;;12.10;74.10;;;;;;5046906;28;20206;-78
2022/03/02 09:28:35;;;;;;;7.38;6.65;;;12.20;75.00;;;;;;5049971;28;20563;-78
2022/03/02 09:31:03;;;;;;;7.50;5.95;;;12.40;75.10;;;;;;5050997;28;20651;-78
2022/03/02 09:33:31;;;;;;;7.80;6.60;;;12.30;73.50;;;;;;5045600;28;20203;-78
2022/03/02 09:36:01;;;;;;;8.32;6.93;;;12.10;73.00;;;;;;5045694;28;20281;-75
2022/03/02 09:38:30;;;;;;;7.25;6.55;;;12.10;74.60;;;;;;5046157;28;20202;-78
2022/03/02 09:41:00;;;;;;;7.78;6.97;;;12.10;75.40;;;;;;5046823;28;20210;-80
2022/03/02 09:43:32;;;;;;;7.85;7.10;;;12.00;74.60;;;;;;5048335;28;20623;-78
2022/03/02 09:46:06;;;;;;;7.55;6.85;;;12.30;75.80;;;;;;5056020;28;20249;-78
2022/03/02 09:48:36;;;;;;;8.65;6.90;;;12.50;75.10;;;;;;5047435;28;20234;-76
2022/03/02 09:51:05;;;;;;;7.97;7.10;;;12.50;75.40;;;;;;5047066;28;20215;-79
2022/03/02 09:53:34;;;;;;;9.70;7.07;;;12.70;75.60;;;;;;5046644;28;20206;-76
2022/03/02 09:56:03;;;;;;;7.22;6.53;;;12.50;73.40;;;;;;5050672;28;20896;-77
2022/03/02 09:58:37;;;;;;;7.63;6.35;;;12.30;74.70;;;;;;5046294;28;20210;-77
2022/03/02 10:01:05;;;;;;;7.43;6.75;;;12.70;75.80;;;;;;5046174;28;20218;-78
2022/03/02 10:03:37;;;;;;;7.55;6.85;;;12.90;75.00;;;;;;5052210;28;20203;-75
2022/03/02 10:06:06;;;;;;;8.07;7.28;;;12.90;74.60;;;;;;5046781;28;20202;-78
2022/03/02 10:08:37;;;;;;;8.45;6.68;;;13.00;74.00;;;;;;5047934;28;20203;-77
2022/03/02 10:11:06;;;;;;;7.07;6.38;;;13.00;72.90;;;;;;5045978;28;20640;-78
2022/03/02 10:13:35;;;;;;;7.35;6.65;;;13.00;72.70;;;;;;5044778;28;20575;-76
2022/03/02 10:16:04;;;;;;;7.13;6.50;;;13.10;71.60;;;;;;5043648;28;20286;-78
2022/03/02 10:18:35;;;;;;;7.20;6.53;;;13.10;71.30;;;;;;5040794;28;20199;-76
2022/03/02 10:21:05;;;;;;;9.15;6.82;;;13.10;70.90;;;;;;5039915;28;20223;-77
2022/03/02 10:23:40;;;;;;;8.18;7.25;;;12.90;71.60;;;;;;5040007;28;20611;-75
2022/03/02 10:26:24;;;;;;;6.88;6.18;;;12.90;71.90;;;;;;5044737;28;20252;-77
2022/03/02 10:29:00;;;;;;;7.88;6.68;;;12.90;72.50;;;;;;5043361;28;20203;-78
2022/03/02 10:31:41;;;;;;;8.02;6.80;;;12.70;71.70;;;;;;5044251;28;20239;-76
2022/03/02 10:34:36;;;;;;;7.65;6.90;;;12.40;69.60;;;;;;5044079;28;20196;-79
2022/03/02 10:37:27;;;;;;;7.22;6.53;;;12.40;71.00;;;;;;5042934;28;20219;-79
2022/03/02 10:39:58;;;;;;;7.13;6.43;;;13.00;69.70;;;;;;5048336;28;20214;-79
2022/03/02 10:42:28;;;;;;;6.43;5.72;;;13.40;69.90;;;;;;5045152;28;20465;-78
2022/03/02 10:45:13;;;;;;;6.55;5.85;;;13.70;69.40;;;;;;5053553;28;20202;-78
2022/03/02 10:47:47;;;;;;;6.20;5.60;;;13.70;67.80;;;;;;5049278;28;20611;-76
2022/03/02 10:50:16;;;;;;;8.38;6.10;;;13.50;67.80;;;;;;5046714;28;20297;-78
2022/03/02 10:52:47;;;;;;;6.50;5.78;;;13.30;68.00;;;;;;5046015;28;20218;-77
2022/03/02 10:55:15;;;;;;;7.65;6.65;;;13.00;69.30;;;;;;5045915;28;20197;-77
2022/03/02 10:57:46;;;;;;;6.70;5.95;;;12.90;71.50;;;;;;5046844;28;20226;-79
2022/03/02 11:00:17;;;;;;;7.63;6.72;;;13.00;70.60;;;;;;5049410;28;20191;-81
2022/03/02 11:02:48;;;;;;;7.43;6.63;;;13.40;70.70;;;;;;5047281;28;20961;-79
2022/03/02 11:05:17;;;;;;;7.28;6.53;;;13.40;67.80;;;;;;5046662;28;20615;-79
2022/03/02 11:07:45;;;;;;;7.10;6.40;;;13.70;69.00;;;;;;5047988;28;20226;-77
2022/03/02 11:10:14;;;;;;;7.22;6.53;;;13.90;68.60;;;;;;5046876;28;20223;-79
2022/03/02 11:12:42;;;;;;;7.60;6.80;;;13.60;68.80;;;;;;5043026;28;20642;-78
2022/03/02 11:15:11;;;;;;;7.30;6.57;;;12.90;69.20;;;;;;5047003;28;20318;-78
2022/03/02 11:17:51;;;;;;;7.70;6.93;;;13.10;69.70;;;;;;5046965;28;20218;-76
2022/03/02 11:20:19;;;;;;;7.28;6.53;;;13.20;68.80;;;;;;5046340;28;20225;-77
2022/03/02 11:22:55;;;;;;;7.40;6.70;;;13.30;69.30;;;;;;5048718;28;20227;-78
2022/03/02 11:25:47;;;;;;;6.97;6.32;;;13.40;68.30;;;;;;5054856;23;20218;-81
2022/03/02 11:28:17;;;;;;;7.40;6.70;;;13.30;68.20;;;;;;5040657;28;20265;-75
2022/03/02 11:30:53;;;;;;;9.38;7.22;;;13.50;68.80;;;;;;5039877;28;20302;-80
2022/03/02 11:33:26;;;;;;;7.53;6.60;;;13.90;69.40;;;;;;5056618;28;20221;-81
2022/03/02 11:35:59;;;;;;;11.70;6.60;;;14.20;67.70;;;;;;5059343;28;20762;-78
2022/03/02 11:38:30;;;;;;;7.60;6.90;;;14.00;67.40;;;;;;5060541;28;20262;-77
2022/03/02 11:40:58;;;;;;;8.60;7.38;;;13.90;67.70;;;;;;5058075;28;20221;-78
2022/03/02 11:43:28;;;;;;;7.82;7.10;;;13.80;65.90;;;;;;5058988;28;20628;-80
2022/03/02 11:45:58;;;;;;;9.90;6.78;;;13.40;67.40;;;;;;5064132;28;20447;-82
2022/03/02 11:48:29;;;;;;;7.70;7.00;;;13.40;68.50;;;;;;5061155;28;20233;-81
2022/03/02 11:51:04;;;;;;;9.07;6.95;;;13.30;66.70;;;;;;5058266;28;20234;-84
2022/03/02 11:53:33;;;;;;;7.65;6.95;;;13.40;66.20;;;;;;5056666;28;20230;-77
2022/03/02 11:56:01;;;;;;;7.68;6.95;;;13.60;66.90;;;;;;5063947;28;20583;-78
2022/03/02 11:58:28;;;;;;;8.75;6.93;;;13.80;66.10;;;;;;5055252;28;20315;-80
2022/03/02 12:01:06;;;;;;;8.02;6.97;;;14.10;66.70;;;;;;5059050;28;20194;-81
2022/03/02 12:03:37;;;;;;;7.28;6.68;;;14.30;65.60;;;;;;5042011;28;20228;-79
2022/03/02 12:06:07;;;;;;;6.38;5.75;;;14.40;67.40;;;;;;5043338;28;20293;-80
2022/03/02 12:08:35;;;;;;;7.78;6.53;;;14.50;66.60;;;;;;5062049;28;20233;-81
2022/03/02 12:11:10;;;;;;;7.78;6.60;;;14.30;68.50;;;;;;5067449;28;20551;-79
2022/03/02 12:13:37;;;;;;;8.65;6.72;;;14.10;67.30;;;;;;5042262;28;20309;-79
2022/03/02 12:16:04;;;;;;;8.07;7.05;;;13.80;66.90;;;;;;5044076;28;20215;-83
2022/03/02 12:18:40;;;;;;;8.07;7.25;;;13.80;67.30;;;;;;5057030;28;20301;-73
2022/03/02 12:21:17;;;;;;;8.05;6.85;;;14.00;68.00;;;;;;5061636;28;20195;-77
2022/03/02 12:23:54;;;;;;;7.30;6.60;;;14.20;66.50;;;;;;5058185;28;20222;-72
2022/03/02 12:26:21;;;;;;;8.65;7.78;;;14.00;67.80;;;;;;5059371;28;20218;-71
2022/03/02 12:28:55;;;;;;;8.30;7.50;;;13.80;66.90;;;;;;5058678;28;20194;-71
2022/03/02 12:31:30;;;;;;;7.88;7.07;;;13.70;66.40;;;;;;5060318;28;20436;-73
2022/03/02 12:34:01;;;;;;;9.40;6.88;;;13.80;67.60;;;;;;5058833;28;20232;-74
2022/03/02 12:36:29;;;;;;;7.85;7.05;;;13.90;67.10;;;;;;5060174;28;20206;-72
2022/03/02 12:38:58;;;;;;;9.00;7.35;;;13.90;65.70;;;;;;5066286;28;20198;-76
2022/03/02 12:41:25;;;;;;;7.20;6.50;;;14.00;66.10;;;;;;5070050;28;20205;-73
2022/03/02 12:43:53;;;;;;;7.30;6.60;;;14.20;66.20;;;;;;5062443;28;20194;-74
2022/03/02 12:46:21;;;;;;;8.05;7.20;;;14.40;66.60;;;;;;5064225;28;20206;-75
2022/03/02 12:48:51;;;;;;;7.90;7.07;;;14.30;65.60;;;;;;5063728;28;20497;-75
2022/03/02 12:51:20;;;;;;;7.30;6.60;;;14.00;65.40;;;;;;5061376;28;20313;-73
2022/03/02 12:53:47;;;;;;;9.95;6.78;;;13.90;66.50;;;;;;5061903;28;20255;-73
2022/03/02 12:56:16;;;;;;;7.07;6.38;;;13.90;66.60;;;;;;5063575;28;20475;-74
2022/03/02 12:58:44;;;;;;;7.28;6.55;;;14.10;65.40;;;;;;5063634;28;20347;-74
2022/03/02 13:01:12;;;;;;;6.95;6.35;;;14.30;65.00;;;;;;5062114;28;20234;-72